createdAt,value
2019-03-11T00:02:08.566Z,1.00
2019-03-11T00:04:36.217Z,1.10
2019-03-11T00:07:03.878Z,0.90
2019-03-11T00:09:31.471Z,1.00
2019-03-11T00:11:59.026Z,0.80
2019-03-11T00:14:26.626Z,1.20
2019-03-11T00:16:54.208Z,1.10
2019-03-11T00:19:21.813Z,1.17
2019-03-11T00:21:49.325Z,0.90
2019-03-11T00:24:16.881Z,0.93
2019-03-11T00:26:44.453Z,1.03
2019-03-11T00:29:12.075Z,1.13
2019-03-11T00:31:39.614Z,0.80
2019-03-11T00:34:07.227Z,0.93
2019-03-11T00:36:36.607Z,1.00
2019-03-11T00:39:05.314Z,1.10
2019-03-11T00:41:33.183Z,0.90
2019-03-11T00:44:00.904Z,0.90
2019-03-11T00:46:28.456Z,0.93
2019-03-11T00:48:56.163Z,1.10
2019-03-11T00:51:23.699Z,1.07
2019-03-11T00:53:51.436Z,1.07
2019-03-11T00:56:19.075Z,1.20
2019-03-11T00:58:47.685Z,1.00
2019-03-11T01:01:15.554Z,1.00
2019-03-11T01:03:43.155Z,1.30
2019-03-11T01:06:10.748Z,1.20
2019-03-11T01:08:38.367Z,1.00
2019-03-11T01:11:05.905Z,1.40
2019-03-11T01:13:33.626Z,1.07
2019-03-11T01:16:01.171Z,1.20
2019-03-11T01:18:28.793Z,1.30
2019-03-11T01:20:56.331Z,1.10
2019-03-11T01:23:23.978Z,1.20
2019-03-11T01:25:51.796Z,1.20
2019-03-11T01:28:19.460Z,1.30
2019-03-11T01:30:46.985Z,1.40
2019-03-11T01:33:14.581Z,1.17
2019-03-11T01:35:42.090Z,1.40
2019-03-11T01:38:10.685Z,1.30
2019-03-11T01:40:38.287Z,1.20
2019-03-11T01:43:05.935Z,1.37
2019-03-11T01:45:33.466Z,1.20
2019-03-11T01:48:01.090Z,1.30
2019-03-11T01:50:28.609Z,1.10
2019-03-11T01:52:56.210Z,0.90
2019-03-11T01:55:23.755Z,1.20
2019-03-11T01:57:53.105Z,1.30
2019-03-11T02:00:20.703Z,0.90
2019-03-11T02:02:48.292Z,0.97
2019-03-11T02:05:15.842Z,1.10
2019-03-11T02:07:43.545Z,0.70
2019-03-11T02:10:12.197Z,0.60
2019-03-11T02:12:39.831Z,0.87
2019-03-11T02:15:09.737Z,0.80
2019-03-11T02:17:37.491Z,1.00
2019-03-11T02:20:06.466Z,0.60
2019-03-11T02:22:34.096Z,0.60
2019-03-11T02:25:01.790Z,0.70
2019-03-11T02:27:30.433Z,0.83
2019-03-11T02:29:58.088Z,0.77
2019-03-11T02:32:28.592Z,0.90
2019-03-11T02:34:55.164Z,0.80
2019-03-11T02:37:22.913Z,0.60
2019-03-11T02:39:50.485Z,0.70
2019-03-11T02:42:18.247Z,0.70
2019-03-11T02:44:45.799Z,0.70
2019-03-11T02:47:13.432Z,0.60
2019-03-11T02:49:43.716Z,0.70
2019-03-11T02:52:11.689Z,0.80
2019-03-11T02:54:39.353Z,1.17
2019-03-11T02:57:07.097Z,1.10
2019-03-11T02:59:34.870Z,1.23
2019-03-11T03:02:20.766Z,1.00
2019-03-11T03:04:58.259Z,1.40
2019-03-11T03:07:25.918Z,1.20
2019-03-11T03:09:53.550Z,0.90
2019-03-11T03:12:21.231Z,1.00
2019-03-11T03:14:48.873Z,0.90
2019-03-11T03:17:16.607Z,0.80
2019-03-11T03:19:44.329Z,1.10
2019-03-11T03:22:12.095Z,0.93
2019-03-11T03:24:40.964Z,1.00
2019-03-11T03:27:08.648Z,0.80
2019-03-11T03:29:36.306Z,1.10
2019-03-11T03:32:04.062Z,1.53
2019-03-11T03:34:31.708Z,1.10
2019-03-11T03:36:59.325Z,1.00
2019-03-11T03:39:27.025Z,1.00
2019-03-11T03:41:54.632Z,0.70
2019-03-11T03:44:22.330Z,0.90
2019-03-11T03:46:50.214Z,1.10
2019-03-11T03:49:17.956Z,1.40
2019-03-11T03:51:45.589Z,1.07
2019-03-11T03:54:13.243Z,1.03
2019-03-11T03:56:40.879Z,1.40
2019-03-11T03:59:08.400Z,1.50
2019-03-11T04:01:36.139Z,1.33
2019-03-11T04:04:03.848Z,1.40
2019-03-11T04:06:31.522Z,1.30
2019-03-11T04:08:59.182Z,1.33
2019-03-11T04:11:26.815Z,1.30
2019-03-11T04:13:54.484Z,1.40
2019-03-11T04:16:22.078Z,1.33
2019-03-11T04:18:51.603Z,2.00
2019-03-11T04:21:19.164Z,1.70
2019-03-11T04:23:46.895Z,1.63
2019-03-11T04:26:14.547Z,1.40
2019-03-11T04:28:42.159Z,1.30
2019-03-11T04:31:09.720Z,1.70
2019-03-11T04:33:37.376Z,1.90
2019-03-11T04:36:04.990Z,1.50
2019-03-11T04:38:34.451Z,2.00
2019-03-11T04:41:02.125Z,1.50
2019-03-11T04:43:29.765Z,1.47
2019-03-11T04:45:59.095Z,1.30
2019-03-11T04:48:26.682Z,1.37
2019-03-11T04:50:54.895Z,1.53
2019-03-11T04:53:22.464Z,1.30
2019-03-11T04:55:51.608Z,1.40
2019-03-11T04:58:19.162Z,1.63
2019-03-11T05:00:46.816Z,1.53
2019-03-11T05:03:14.394Z,1.50
2019-03-11T05:05:42.056Z,1.80
2019-03-11T05:08:09.768Z,1.43
2019-03-11T05:10:37.419Z,1.40
2019-03-11T05:13:05.057Z,1.43
2019-03-11T05:15:32.629Z,1.87
2019-03-11T05:18:00.229Z,1.47
2019-03-11T05:20:27.784Z,1.80
2019-03-11T05:22:55.436Z,1.50
2019-03-11T05:25:22.974Z,1.40
2019-03-11T05:27:50.581Z,1.63
2019-03-11T05:30:19.323Z,1.83
2019-03-11T05:32:47.386Z,2.20
2019-03-11T05:35:15.207Z,1.93
2019-03-11T05:37:42.932Z,1.60
2019-03-11T05:40:11.865Z,1.60
2019-03-11T05:42:39.400Z,2.10
2019-03-11T05:45:08.715Z,1.67
2019-03-11T05:47:36.384Z,1.80
2019-03-11T05:50:05.104Z,1.70
2019-03-11T05:52:32.658Z,1.50
2019-03-11T05:55:00.378Z,1.63
2019-03-11T05:57:27.948Z,2.93
2019-03-11T05:59:55.592Z,1.87
2019-03-11T06:02:23.125Z,1.57
2019-03-11T06:04:50.896Z,1.77
2019-03-11T06:07:18.493Z,1.80
2019-03-11T06:09:46.147Z,1.40
2019-03-11T06:12:14.075Z,1.70
2019-03-11T06:14:41.870Z,1.60
2019-03-11T06:17:09.565Z,1.73
2019-03-11T06:19:37.222Z,1.73
2019-03-11T06:22:24.353Z,1.87
2019-03-11T06:24:52.121Z,1.37
2019-03-11T06:27:19.772Z,1.77
2019-03-11T06:29:47.328Z,1.50
2019-03-11T06:32:14.951Z,1.60
2019-03-11T06:34:42.511Z,2.00
2019-03-11T06:37:10.127Z,1.80
2019-03-11T06:39:37.685Z,1.63
2019-03-11T06:42:05.288Z,2.00
2019-03-11T06:44:33.209Z,1.60
2019-03-11T06:47:00.835Z,1.40
2019-03-11T06:49:28.356Z,1.60
2019-03-11T06:51:57.101Z,1.83
2019-03-11T06:54:24.615Z,1.77
2019-03-11T06:56:52.340Z,1.70
2019-03-11T06:59:19.896Z,4.30
2019-03-11T07:01:47.544Z,3.37
2019-03-11T07:04:15.068Z,1.77
2019-03-11T07:06:44.494Z,1.87
2019-03-11T07:09:12.041Z,1.90
2019-03-11T07:11:39.758Z,1.77
2019-03-11T07:14:07.407Z,1.60
2019-03-11T07:16:35.250Z,1.70
2019-03-11T07:19:02.924Z,2.00
2019-03-11T07:21:32.115Z,1.70
2019-03-11T07:23:59.812Z,1.90
2019-03-11T07:26:27.386Z,1.73
2019-03-11T07:28:55.067Z,1.57
2019-03-11T07:31:22.751Z,1.23
2019-03-11T07:33:51.888Z,1.50
2019-03-11T07:36:19.644Z,1.90
2019-03-11T07:38:47.250Z,1.73
2019-03-11T07:41:14.924Z,1.70
2019-03-11T07:43:42.673Z,1.53
2019-03-11T07:46:10.353Z,1.70
2019-03-11T07:48:38.031Z,1.50
2019-03-11T07:51:05.705Z,1.60
2019-03-11T07:53:33.364Z,1.57
2019-03-11T07:56:01.101Z,1.47
2019-03-11T07:58:28.777Z,1.50
2019-03-11T08:00:56.436Z,1.73
2019-03-11T08:03:24.388Z,1.20
2019-03-11T08:05:52.108Z,1.50
2019-03-11T08:08:19.804Z,1.30
2019-03-11T08:10:47.531Z,1.40
2019-03-11T08:13:15.282Z,1.00
2019-03-11T08:15:42.924Z,1.50
2019-03-11T08:18:10.949Z,1.27
2019-03-11T08:20:38.802Z,1.47
2019-03-11T08:23:06.432Z,1.17
2019-03-11T08:25:34.127Z,1.30
2019-03-11T08:28:01.829Z,1.23
2019-03-11T08:30:29.512Z,1.30
2019-03-11T08:32:57.209Z,1.20
2019-03-11T08:35:25.015Z,1.30
2019-03-11T08:37:52.769Z,1.00
2019-03-11T08:40:20.593Z,1.00
2019-03-11T08:42:48.404Z,1.13
2019-03-11T08:45:16.717Z,0.90
2019-03-11T08:47:44.450Z,0.80
2019-03-11T08:50:12.128Z,0.90
2019-03-11T08:52:39.762Z,0.93
2019-03-11T08:55:07.510Z,0.93
2019-03-11T08:57:35.088Z,0.93
2019-03-11T09:00:03.244Z,1.40
2019-03-11T09:02:31.995Z,1.10
2019-03-11T09:04:59.660Z,1.10
2019-03-11T09:07:27.239Z,1.03
2019-03-11T09:09:54.855Z,0.93
2019-03-11T09:12:22.409Z,0.83
2019-03-11T09:14:49.984Z,0.90
2019-03-11T09:17:17.550Z,1.03
2019-03-11T09:19:45.198Z,1.30
2019-03-11T09:22:12.821Z,1.20
2019-03-11T09:24:40.399Z,0.97
2019-03-11T09:27:08.005Z,1.00
2019-03-11T09:29:35.525Z,1.10
2019-03-11T09:32:03.104Z,0.97
2019-03-11T09:34:30.619Z,0.73
2019-03-11T09:36:58.318Z,1.43
2019-03-11T09:39:25.868Z,1.20
2019-03-11T09:41:53.534Z,0.90
2019-03-11T09:44:21.064Z,1.03
2019-03-11T09:46:48.800Z,0.97
2019-03-11T09:49:17.352Z,1.00
2019-03-11T09:51:44.990Z,1.07
2019-03-11T09:54:12.542Z,1.10
2019-03-11T09:56:43.611Z,1.20
2019-03-11T09:59:11.206Z,0.90
2019-03-11T10:01:38.865Z,1.10
2019-03-11T10:04:06.388Z,0.90
2019-03-11T10:06:33.988Z,0.83
2019-03-11T10:09:01.516Z,0.90
2019-03-11T10:11:32.903Z,0.70
2019-03-11T10:14:00.432Z,1.00
2019-03-11T10:16:28.100Z,1.20
2019-03-11T10:18:55.614Z,1.00
2019-03-11T10:21:23.195Z,0.90
2019-03-11T10:23:50.714Z,1.03
2019-03-11T10:26:18.335Z,0.90
2019-03-11T10:28:45.928Z,0.80
2019-03-11T10:31:13.549Z,1.00
2019-03-11T10:33:41.319Z,1.17
2019-03-11T10:36:11.753Z,1.10
2019-03-11T10:38:39.489Z,0.90
2019-03-11T10:41:07.140Z,0.80
2019-03-11T10:43:34.819Z,0.87
2019-03-11T10:46:02.533Z,0.87
2019-03-11T10:48:37.050Z,1.00
2019-03-11T10:50:59.958Z,0.90
2019-03-11T10:53:27.705Z,0.70
2019-03-11T10:55:55.345Z,1.17
2019-03-11T10:58:22.992Z,0.77
2019-03-11T11:00:50.753Z,0.80
2019-03-11T11:03:18.439Z,0.73
2019-03-11T11:05:46.092Z,1.10
2019-03-11T11:08:13.780Z,0.90
2019-03-11T11:10:41.496Z,1.00
2019-03-11T11:13:09.150Z,0.90
2019-03-11T11:15:36.799Z,0.93
2019-03-11T11:18:04.423Z,0.90
2019-03-11T11:20:32.031Z,0.90
2019-03-11T11:22:59.771Z,0.67
2019-03-11T11:25:30.297Z,0.80
2019-03-11T11:27:57.965Z,0.70
2019-03-11T11:30:25.713Z,0.70
2019-03-11T11:32:53.527Z,0.80
2019-03-11T11:35:21.224Z,0.90
2019-03-11T11:37:49.006Z,0.97
2019-03-11T11:40:18.389Z,0.90
2019-03-11T11:42:46.493Z,0.90
2019-03-11T11:45:15.616Z,0.73
2019-03-11T11:47:43.547Z,1.00
2019-03-11T11:50:14.151Z,0.80
2019-03-11T11:52:42.169Z,1.60
2019-03-11T11:55:09.803Z,1.03
2019-03-11T11:57:37.583Z,0.80
2019-03-11T12:00:07.428Z,0.97
2019-03-11T12:02:35.210Z,0.90
2019-03-11T12:05:02.767Z,0.93
2019-03-11T12:07:30.486Z,1.10
2019-03-11T12:09:58.161Z,0.80
2019-03-11T12:12:25.780Z,0.80
2019-03-11T12:14:53.427Z,0.70
2019-03-11T12:17:23.353Z,0.70
2019-03-11T12:19:50.574Z,0.80
2019-03-11T12:22:18.137Z,0.67
2019-03-11T12:24:45.823Z,0.80
2019-03-11T12:27:13.451Z,0.80
2019-03-11T12:29:41.133Z,0.80
2019-03-11T12:32:08.853Z,1.00
2019-03-11T12:34:36.559Z,1.47
2019-03-11T12:37:05.643Z,0.87
2019-03-11T12:39:34.332Z,1.13
2019-03-11T12:42:01.981Z,1.10
2019-03-11T12:44:29.643Z,1.20
2019-03-11T12:46:57.297Z,0.90
2019-03-11T12:49:25.361Z,0.87
2019-03-11T12:51:52.992Z,0.70
2019-03-11T12:54:20.702Z,0.70
2019-03-11T12:56:48.416Z,0.77
2019-03-11T12:59:17.117Z,0.70
2019-03-11T13:01:44.741Z,0.70
2019-03-11T13:04:12.344Z,0.77
2019-03-11T13:06:39.982Z,0.90
2019-03-11T13:09:07.693Z,0.80
2019-03-11T13:11:36.220Z,0.70
2019-03-11T13:14:03.888Z,0.70
2019-03-11T13:16:31.586Z,0.70
2019-03-11T13:19:12.469Z,0.60
2019-03-11T13:21:32.177Z,0.80
2019-03-11T13:23:59.772Z,0.60
2019-03-11T13:26:30.597Z,0.90
2019-03-11T13:28:58.227Z,0.60
2019-03-11T13:31:25.956Z,0.90
2019-03-11T13:33:53.659Z,0.87
2019-03-11T13:36:21.410Z,1.00
2019-03-11T13:38:49.164Z,0.77
2019-03-11T13:41:16.814Z,0.70
2019-03-11T13:43:44.444Z,0.87
2019-03-11T13:46:12.154Z,0.80
2019-03-11T13:48:39.800Z,0.60
2019-03-11T13:51:07.453Z,0.83
2019-03-11T13:53:35.024Z,0.80
2019-03-11T13:56:02.676Z,0.63
2019-03-11T13:58:33.013Z,0.70
2019-03-11T14:00:59.949Z,0.60
2019-03-11T14:03:27.589Z,0.73
2019-03-11T14:05:55.335Z,0.80
2019-03-11T14:08:23.031Z,0.67
2019-03-11T14:10:50.834Z,0.63
2019-03-11T14:13:18.541Z,0.70
2019-03-11T14:15:46.259Z,0.83
2019-03-11T14:18:14.006Z,0.70
2019-03-11T14:20:41.702Z,0.70
2019-03-11T14:23:09.403Z,0.70
2019-03-11T14:25:37.117Z,0.77
2019-03-11T14:28:04.892Z,0.70
2019-03-11T14:30:32.569Z,0.80
2019-03-11T14:33:00.256Z,0.70
2019-03-11T14:35:27.950Z,0.80
2019-03-11T14:37:55.669Z,0.77
2019-03-11T14:40:24.405Z,0.70
2019-03-11T14:42:52.167Z,0.80
2019-03-11T14:45:21.441Z,0.70
2019-03-11T14:47:49.106Z,0.97
2019-03-11T14:50:17.038Z,1.00
2019-03-11T14:52:44.800Z,0.80
2019-03-11T14:55:12.852Z,0.90
2019-03-11T14:57:40.459Z,0.70
2019-03-11T15:00:11.153Z,1.00
2019-03-11T15:02:38.777Z,0.90
2019-03-11T15:05:06.642Z,0.80
2019-03-11T15:07:34.365Z,0.60
2019-03-11T15:10:02.064Z,0.90
2019-03-11T15:12:30.018Z,1.07
2019-03-11T15:14:57.705Z,1.00
2019-03-11T15:17:25.309Z,0.80
2019-03-11T15:19:52.934Z,0.93
2019-03-11T15:22:22.406Z,0.73
2019-03-11T15:24:51.152Z,1.33
2019-03-11T15:27:18.694Z,0.90
2019-03-11T15:29:47.511Z,0.70
2019-03-11T15:32:15.085Z,0.90
2019-03-11T15:34:42.673Z,0.90
2019-03-11T15:37:10.290Z,0.90
2019-03-11T15:39:37.921Z,0.90
2019-03-11T15:42:05.530Z,0.93
2019-03-11T15:44:33.164Z,1.00
2019-03-11T15:47:00.902Z,1.10
2019-03-11T15:49:28.654Z,1.00
2019-03-11T15:51:56.337Z,1.00
2019-03-11T15:54:24.004Z,1.17
2019-03-11T15:56:52.128Z,1.30
2019-03-11T15:59:19.753Z,1.37
2019-03-11T16:01:47.398Z,1.10
2019-03-11T16:04:15.059Z,0.90
2019-03-11T16:06:42.692Z,1.57
2019-03-11T16:09:19.105Z,1.27
2019-03-11T16:11:39.968Z,1.20
2019-03-11T16:14:07.632Z,1.00
2019-03-11T16:16:35.210Z,0.90
2019-03-11T16:19:03.051Z,1.10
2019-03-11T16:21:30.636Z,1.10
2019-03-11T16:24:00.112Z,1.10
2019-03-11T16:26:27.833Z,1.20
2019-03-11T16:28:56.549Z,0.80
2019-03-11T16:31:24.873Z,1.20
2019-03-11T16:33:52.447Z,1.30
2019-03-11T16:36:20.113Z,1.07
2019-03-11T16:38:47.726Z,0.80
2019-03-11T16:41:15.463Z,1.10
2019-03-11T16:43:43.149Z,1.43
2019-03-11T16:46:10.892Z,1.10
2019-03-11T16:48:38.484Z,1.17
2019-03-11T16:51:06.167Z,1.70
2019-03-11T16:53:33.812Z,1.57
2019-03-11T16:56:01.661Z,1.60
2019-03-11T16:58:29.236Z,1.00
2019-03-11T17:00:58.980Z,1.10
2019-03-11T17:03:26.594Z,0.90
2019-03-11T17:05:54.251Z,1.13
2019-03-11T17:08:21.807Z,1.00
2019-03-11T17:10:49.546Z,1.00
2019-03-11T17:13:17.098Z,1.10
2019-03-11T17:15:44.892Z,1.80
2019-03-11T17:18:12.449Z,2.10
2019-03-11T17:20:40.110Z,1.50
2019-03-11T17:23:07.699Z,0.97
2019-03-11T17:25:35.443Z,1.10
2019-03-11T17:28:03.015Z,1.20
2019-03-11T17:30:30.627Z,1.10
2019-03-11T17:32:58.215Z,1.10
2019-03-11T17:35:25.930Z,1.37
2019-03-11T17:37:53.598Z,0.80
2019-03-11T17:40:21.464Z,1.00
2019-03-11T17:42:49.097Z,0.90
2019-03-11T17:45:16.712Z,2.10
2019-03-11T17:47:44.317Z,1.67
2019-03-11T17:50:12.775Z,1.93
2019-03-11T17:52:40.659Z,2.90
2019-03-11T17:55:08.604Z,2.47
2019-03-11T17:57:37.572Z,4.20
2019-03-11T18:00:07.000Z,2.00
2019-03-11T18:02:35.266Z,5.07
2019-03-11T18:05:03.505Z,1.97
2019-03-11T18:07:31.260Z,2.63
2019-03-11T18:09:58.925Z,1.20
2019-03-11T18:12:26.633Z,1.20
2019-03-11T18:14:54.363Z,1.83
2019-03-11T18:17:22.054Z,1.73
2019-03-11T18:19:49.669Z,2.80
2019-03-11T18:22:17.388Z,3.30
2019-03-11T18:24:44.977Z,1.00
2019-03-11T18:27:12.761Z,2.60
2019-03-11T18:29:40.340Z,1.40
2019-03-11T18:32:08.068Z,1.50
2019-03-11T18:34:35.810Z,2.33
2019-03-11T18:37:03.675Z,4.73
2019-03-11T18:39:31.407Z,3.93
2019-03-11T18:41:59.078Z,2.87
2019-03-11T18:44:26.788Z,2.33
2019-03-11T18:46:55.390Z,2.63
2019-03-11T18:49:23.249Z,5.43
2019-03-11T18:51:53.446Z,5.30
2019-03-11T18:54:21.143Z,4.73
2019-03-11T18:56:48.962Z,4.17
2019-03-11T18:59:16.670Z,4.27
2019-03-11T19:01:44.287Z,6.10
2019-03-11T19:04:12.035Z,6.60
2019-03-11T19:06:39.642Z,6.20
2019-03-11T19:09:07.693Z,5.87
2019-03-11T19:11:36.736Z,6.13
2019-03-11T19:14:04.563Z,8.50
2019-03-11T19:16:32.197Z,5.60
2019-03-11T19:18:59.914Z,5.97
2019-03-11T19:21:27.513Z,8.97
2019-03-11T19:23:55.209Z,7.17
2019-03-11T19:26:22.913Z,6.03
2019-03-11T19:28:50.625Z,5.40
2019-03-11T19:31:18.243Z,4.47
2019-03-11T19:33:45.983Z,6.90
2019-03-11T19:36:13.743Z,4.93
2019-03-11T19:38:42.049Z,4.70
2019-03-11T19:41:09.901Z,4.97
2019-03-11T19:43:37.731Z,5.67
2019-03-11T19:46:05.439Z,6.73
2019-03-11T19:48:34.206Z,5.30
2019-03-11T19:51:01.870Z,3.90
2019-03-11T19:53:29.608Z,3.53
2019-03-11T19:55:58.300Z,3.10
2019-03-11T19:58:26.063Z,2.47
2019-03-11T20:00:53.695Z,3.90
2019-03-11T20:03:30.314Z,1.37
2019-03-11T20:05:54.152Z,3.17
2019-03-11T20:08:21.905Z,5.23
2019-03-11T20:10:49.508Z,4.23
2019-03-11T20:13:17.624Z,3.10
2019-03-11T20:15:45.676Z,1.70
2019-03-11T20:18:13.682Z,3.80
2019-03-11T20:20:41.702Z,2.07
2019-03-11T20:23:09.884Z,1.60
2019-03-11T20:25:37.622Z,5.40
2019-03-11T20:28:05.377Z,3.57
2019-03-11T20:30:33.039Z,3.33
2019-03-11T20:33:03.661Z,1.70
2019-03-11T20:35:30.383Z,4.50
2019-03-11T20:37:59.207Z,6.70
2019-03-11T20:40:29.706Z,3.30
2019-03-11T20:42:57.405Z,4.07
2019-03-11T20:45:25.081Z,2.77
2019-03-11T20:47:53.004Z,4.47
2019-03-11T20:50:20.648Z,4.63
2019-03-11T20:52:48.498Z,4.60
2019-03-11T20:55:17.139Z,4.07
2019-03-11T20:57:48.050Z,1.97
2019-03-11T21:00:17.211Z,1.70
2019-03-11T21:02:45.037Z,3.37
2019-03-11T21:05:13.218Z,1.70
2019-03-11T21:07:40.812Z,1.80
2019-03-11T21:10:10.911Z,1.57
2019-03-11T21:12:38.552Z,1.20
2019-03-11T21:15:06.594Z,1.30
2019-03-11T21:17:34.402Z,1.20
2019-03-11T21:20:02.118Z,1.20
2019-03-11T21:22:32.191Z,1.40
2019-03-11T21:25:00.128Z,1.03
2019-03-11T21:27:27.940Z,1.20
2019-03-11T21:29:55.686Z,1.30
2019-03-11T21:32:23.421Z,1.20
2019-03-11T21:34:51.954Z,1.40
2019-03-11T21:37:20.427Z,1.40
2019-03-11T21:39:48.791Z,1.43
2019-03-11T21:42:16.928Z,1.30
2019-03-11T21:44:46.013Z,1.30
2019-03-11T21:47:14.195Z,1.30
2019-03-11T21:49:42.714Z,1.23
2019-03-11T21:52:10.734Z,1.20
2019-03-11T21:54:38.669Z,1.20
2019-03-11T21:57:06.631Z,1.00
2019-03-11T21:59:34.807Z,1.17
2019-03-11T22:02:02.975Z,1.00
2019-03-11T22:04:31.414Z,1.20
2019-03-11T22:06:59.179Z,1.20
2019-03-11T22:09:27.159Z,0.90
2019-03-11T22:11:55.056Z,0.93
2019-03-11T22:14:23.106Z,1.00
2019-03-11T22:16:51.189Z,1.00
2019-03-11T22:19:19.232Z,1.10
2019-03-11T22:21:47.138Z,1.00
2019-03-11T22:24:16.833Z,1.10
2019-03-11T22:26:44.668Z,1.00
2019-03-11T22:29:12.768Z,1.10
2019-03-11T22:31:40.527Z,1.00
2019-03-11T22:34:08.562Z,1.13
2019-03-11T22:36:39.812Z,1.00
2019-03-11T22:39:08.031Z,1.00
2019-03-11T22:41:36.278Z,0.90
2019-03-11T22:44:04.314Z,1.10
2019-03-11T22:46:32.345Z,1.00
2019-03-11T22:49:00.407Z,1.20
2019-03-11T22:51:28.290Z,1.10
2019-03-11T22:53:56.417Z,1.10
2019-03-11T22:56:24.451Z,1.00
2019-03-11T22:58:52.474Z,1.10
2019-03-11T23:01:20.661Z,1.10
2019-03-11T23:03:50.764Z,1.20
2019-03-11T23:06:18.697Z,1.20
2019-03-11T23:08:46.599Z,1.00
2019-03-11T23:11:14.614Z,1.10
2019-03-11T23:13:42.557Z,0.93
2019-03-11T23:16:10.306Z,1.00
2019-03-11T23:18:38.398Z,1.10
2019-03-11T23:21:06.414Z,1.13
2019-03-11T23:23:34.474Z,1.00
2019-03-11T23:26:03.809Z,1.00
2019-03-11T23:35:12.451Z,1.20
2019-03-11T23:37:40.578Z,0.90
2019-03-11T23:40:08.814Z,0.93
2019-03-11T23:42:37.606Z,1.33
2019-03-11T23:45:05.962Z,1.30
2019-03-11T23:47:34.091Z,1.07
2019-03-11T23:50:02.074Z,1.10
2019-03-11T23:52:30.126Z,1.00
2019-03-11T23:54:58.060Z,1.03
2019-03-11T23:57:26.112Z,1.03
2019-03-11T23:59:54.248Z,1.10
